Argyle's Hourly Summary for Thursday, July 5, 2018
Hour Temp
(f)
RH
(%)
Solar Rad.
(MJ/m2)
Rainfall
(in)
Wind
(mph)
7/5/2018 12:00 AM 82 61 0 0 6.36
7/5/2018 1:00 AM 80 64 0 0 5.68
7/5/2018 2:00 AM 78 69 0 0 3.87
7/5/2018 3:00 AM 76 74 0 0 1.06
7/5/2018 4:00 AM 75 80 0 0 1.16
7/5/2018 5:00 AM 75 80 0 0 1.89
7/5/2018 6:00 AM 75 80 0 0 1.26
7/5/2018 7:00 AM 72 85 0.02 0 0
7/5/2018 8:00 AM 75 77 0.35 0 1.84
7/5/2018 9:00 AM 79 68 1.15 0 2.82
7/5/2018 10:00 AM 81 61 1.79 0 3.12
7/5/2018 11:00 AM 84 56 2.43 0 3.26
7/5/2018 12:00 PM 87 46 2.96 0 4.04
7/5/2018 1:00 PM 90 45 3.23 0 4.54
7/5/2018 2:00 PM 91 42 3.29 0 6.24
7/5/2018 3:00 PM 93 38 3.26 0 5.1
7/5/2018 4:00 PM 95 32 2.97 0 4.99
7/5/2018 5:00 PM 96 32 2.54 0 5.09
7/5/2018 6:00 PM 96 33 1.71 0 4.59
7/5/2018 7:00 PM 93 35 0.89 0 5.25
7/5/2018 8:00 PM 89 49 0.29 0 3.31
7/5/2018 9:00 PM 87 54 0.09 0 1.09
7/5/2018 10:00 PM 86 55 0 0 2.3
7/5/2018 11:00 PM 86 58 0 0 3.69
Data Summary 84 57 26.97 0.00 3.44